Terminal Aerodrome Forecast
Issued by NWS Shreveport, LA

Home | Current Version | Previous Version | Text Only | Print | Product List | Glossary On
Versions: 1 2 3 4 5 6 7 8 9 10 11 12
541
FTUS44 KSHV 212321
TAFELD
TAF
KELD 212321Z 2200/2224 VRB03KT P6SM BKN050 BKN180
      TEMPO 2200/2204 SCT050 SCT180 SCT250
     FM220400 36005KT P6SM FEW035 SCT250
     FM220900 36008KT P6SM SCT250
     FM221500 02011KT P6SM SCT250=

USA.gov is the U.S. government's official web portal to all federal, state and local government web resources and services.